East Hickory, Pennsylvania
Current Conditions -  °F | °C
As of 5:15 PM on Tuesday 25 Nov 2014 (Local Time) from KFKL Reporting Station
Overcast Overcast  
Wind Chill: -2°   Ceiling: 3400
Heat Index:   Visibility: 10mi
Dew Point: -4°   Wind: 9mph
Humidity: 65%   Direction: 270°W
Pressure: 30.09"   Gusts: NA
Location:  41.58°N, 79.4°W
Report Text: KFKL 252215Z AUTO 27008KT 10SM FEW025 OVC034 02/M04 A3009 RMK AO1
Loading
Personal Weather Stations






























Interactive Weather Map New forecast layout! Learn more

10-Day Weather Forecast

Advertisements
Track Severe Weather on mobile